sensor_id;sensor_type;location;lat;lon;timestamp;temperature;humidity
6538;DHT22;3302;52.508;13.454;2023-09-19T00:00:46;18.30;99.90
6538;DHT22;3302;52.508;13.454;2023-09-19T00:03:12;18.30;99.90
6538;DHT22;3302;52.508;13.454;2023-09-19T00:05:39;18.20;99.90
6538;DHT22;3302;52.508;13.454;2023-09-19T00:08:05;18.30;99.90
6538;DHT22;3302;52.508;13.454;2023-09-19T00:10:32;18.20;99.90
6538;DHT22;3302;52.508;13.454;2023-09-19T00:13:03;18.20;99.90
6538;DHT22;3302;52.508;13.454;2023-09-19T00:15:37;18.20;99.90
6538;DHT22;3302;52.508;13.454;2023-09-19T00:18:04;18.20;99.90
6538;DHT22;3302;52.508;13.454;2023-09-19T00:20:32;18.20;99.90
6538;DHT22;3302;52.508;13.454;2023-09-19T00:23:00;18.30;99.90
6538;DHT22;3302;52.508;13.454;2023-09-19T00:25:34;18.20;99.90
6538;DHT22;3302;52.508;13.454;2023-09-19T00:28:04;18.10;99.90
6538;DHT22;3302;52.508;13.454;2023-09-19T00:30:31;18.00;99.90
6538;DHT22;3302;52.508;13.454;2023-09-19T00:32:58;18.10;99.90
6538;DHT22;3302;52.508;13.454;2023-09-19T00:35:24;18.00;99.90
6538;DHT22;3302;52.508;13.454;2023-09-19T00:37:50;18.00;99.90
6538;DHT22;3302;52.508;13.454;2023-09-19T00:40:16;17.90;99.90
6538;DHT22;3302;52.508;13.454;2023-09-19T00:42:45;17.90;99.90
6538;DHT22;3302;52.508;13.454;2023-09-19T00:45:13;17.80;99.90
6538;DHT22;3302;52.508;13.454;2023-09-19T00:47:42;17.90;99.90
6538;DHT22;3302;52.508;13.454;2023-09-19T00:50:09;17.80;99.90
6538;DHT22;3302;52.508;13.454;2023-09-19T00:52:39;17.90;99.90
6538;DHT22;3302;52.508;13.454;2023-09-19T00:55:10;17.80;99.90
6538;DHT22;3302;52.508;13.454;2023-09-19T00:57:38;17.70;99.90
6538;DHT22;3302;52.508;13.454;2023-09-19T01:00:05;17.80;99.90
6538;DHT22;3302;52.508;13.454;2023-09-19T01:02:34;17.90;99.90
6538;DHT22;3302;52.508;13.454;2023-09-19T01:05:01;17.80;99.90
6538;DHT22;3302;52.508;13.454;2023-09-19T01:07:28;17.90;99.90
6538;DHT22;3302;52.508;13.454;2023-09-19T01:10:17;17.90;99.90
6538;DHT22;3302;52.508;13.454;2023-09-19T01:15:28;17.70;99.90
6538;DHT22;3302;52.508;13.454;2023-09-19T01:21:16;17.80;99.90
6538;DHT22;3302;52.508;13.454;2023-09-19T01:29:44;17.80;99.90
6538;DHT22;3302;52.508;13.454;2023-09-19T01:32:16;17.90;99.90
6538;DHT22;3302;52.508;13.454;2023-09-19T01:34:56;17.70;99.90
6538;DHT22;3302;52.508;13.454;2023-09-19T01:37:31;17.80;99.90
6538;DHT22;3302;52.508;13.454;2023-09-19T01:40:02;17.80;99.90
6538;DHT22;3302;52.508;13.454;2023-09-19T01:51:55;17.80;99.90
6538;DHT22;3302;52.508;13.454;2023-09-19T01:54:31;17.80;99.90
6538;DHT22;3302;52.508;13.454;2023-09-19T01:57:07;17.80;99.90
6538;DHT22;3302;52.508;13.454;2023-09-19T01:59:50;17.80;99.90
6538;DHT22;3302;52.508;13.454;2023-09-19T02:02:19;17.80;99.90
6538;DHT22;3302;52.508;13.454;2023-09-19T02:04:48;17.80;99.90
6538;DHT22;3302;52.508;13.454;2023-09-19T02:07:14;17.70;99.90
6538;DHT22;3302;52.508;13.454;2023-09-19T02:09:40;17.70;99.90
6538;DHT22;3302;52.508;13.454;2023-09-19T02:12:09;17.70;99.90
6538;DHT22;3302;52.508;13.454;2023-09-19T02:14:35;17.70;99.90
6538;DHT22;3302;52.508;13.454;2023-09-19T02:17:04;17.70;99.90
6538;DHT22;3302;52.508;13.454;2023-09-19T02:19:35;17.70;99.90
6538;DHT22;3302;52.508;13.454;2023-09-19T02:22:01;17.60;99.90
6538;DHT22;3302;52.508;13.454;2023-09-19T02:24:33;17.60;99.90
6538;DHT22;3302;52.508;13.454;2023-09-19T02:26:59;17.60;99.90
6538;DHT22;3302;52.508;13.454;2023-09-19T02:29:29;17.60;99.90
6538;DHT22;3302;52.508;13.454;2023-09-19T02:31:55;17.50;99.90
6538;DHT22;3302;52.508;13.454;2023-09-19T02:34:22;17.60;99.90
6538;DHT22;3302;52.508;13.454;2023-09-19T02:36:48;17.50;99.90
6538;DHT22;3302;52.508;13.454;2023-09-19T02:39:14;17.40;99.90
6538;DHT22;3302;52.508;13.454;2023-09-19T02:41:40;17.40;99.90
6538;DHT22;3302;52.508;13.454;2023-09-19T02:44:07;17.50;99.90
6538;DHT22;3302;52.508;13.454;2023-09-19T02:46:34;17.50;99.90
6538;DHT22;3302;52.508;13.454;2023-09-19T02:49:02;17.50;99.90
6538;DHT22;3302;52.508;13.454;2023-09-19T02:51:31;17.50;99.90
6538;DHT22;3302;52.508;13.454;2023-09-19T02:53:56;17.50;99.90
6538;DHT22;3302;52.508;13.454;2023-09-19T02:56:22;17.50;99.90
6538;DHT22;3302;52.508;13.454;2023-09-19T02:58:50;17.50;99.90
6538;DHT22;3302;52.508;13.454;2023-09-19T03:01:17;17.60;99.90
6538;DHT22;3302;52.508;13.454;2023-09-19T03:03:44;17.60;99.90
6538;DHT22;3302;52.508;13.454;2023-09-19T03:06:11;17.60;99.90
6538;DHT22;3302;52.508;13.454;2023-09-19T03:08:39;17.60;99.90
6538;DHT22;3302;52.508;13.454;2023-09-19T03:11:05;17.60;99.90
6538;DHT22;3302;52.508;13.454;2023-09-19T03:13:32;17.60;99.90
6538;DHT22;3302;52.508;13.454;2023-09-19T03:15:58;17.60;99.90
6538;DHT22;3302;52.508;13.454;2023-09-19T03:18:24;17.60;99.90
6538;DHT22;3302;52.508;13.454;2023-09-19T03:20:58;17.60;99.90
6538;DHT22;3302;52.508;13.454;2023-09-19T03:23:26;17.60;99.90
6538;DHT22;3302;52.508;13.454;2023-09-19T03:25:53;17.60;99.90
6538;DHT22;3302;52.508;13.454;2023-09-19T03:28:20;17.60;99.90
6538;DHT22;3302;52.508;13.454;2023-09-19T03:30:58;17.60;99.90
6538;DHT22;3302;52.508;13.454;2023-09-19T03:33:25;17.70;99.90
6538;DHT22;3302;52.508;13.454;2023-09-19T03:35:54;17.60;99.90
6538;DHT22;3302;52.508;13.454;2023-09-19T03:38:20;17.60;99.90
6538;DHT22;3302;52.508;13.454;2023-09-19T03:40:47;17.60;99.90
6538;DHT22;3302;52.508;13.454;2023-09-19T03:43:14;17.60;99.90
6538;DHT22;3302;52.508;13.454;2023-09-19T03:45:40;17.70;99.90
6538;DHT22;3302;52.508;13.454;2023-09-19T03:48:09;17.60;99.90
6538;DHT22;3302;52.508;13.454;2023-09-19T03:50:35;17.70;99.90
6538;DHT22;3302;52.508;13.454;2023-09-19T03:53:01;17.60;99.90
6538;DHT22;3302;52.508;13.454;2023-09-19T03:55:28;17.60;99.90
6538;DHT22;3302;52.508;13.454;2023-09-19T03:57:55;17.60;99.90
6538;DHT22;3302;52.508;13.454;2023-09-19T04:00:21;17.60;99.90
6538;DHT22;3302;52.508;13.454;2023-09-19T04:02:51;17.60;99.90
6538;DHT22;3302;52.508;13.454;2023-09-19T04:05:17;17.50;99.90
6538;DHT22;3302;52.508;13.454;2023-09-19T04:07:43;17.50;99.90
6538;DHT22;3302;52.508;13.454;2023-09-19T04:10:09;17.50;99.90
6538;DHT22;3302;52.508;13.454;2023-09-19T04:12:37;17.50;99.90
6538;DHT22;3302;52.508;13.454;2023-09-19T04:15:05;17.50;99.90
6538;DHT22;3302;52.508;13.454;2023-09-19T04:17:31;17.50;99.90
6538;DHT22;3302;52.508;13.454;2023-09-19T04:20:00;17.40;99.90
6538;DHT22;3302;52.508;13.454;2023-09-19T04:22:26;17.40;99.90
6538;DHT22;3302;52.508;13.454;2023-09-19T04:24:51;17.50;99.90
6538;DHT22;3302;52.508;13.454;2023-09-19T04:27:17;17.40;99.90
6538;DHT22;3302;52.508;13.454;2023-09-19T04:29:44;17.40;99.90
6538;DHT22;3302;52.508;13.454;2023-09-19T04:32:10;17.40;99.90
6538;DHT22;3302;52.508;13.454;2023-09-19T04:34:36;17.40;99.90
6538;DHT22;3302;52.508;13.454;2023-09-19T04:37:04;17.40;99.90
6538;DHT22;3302;52.508;13.454;2023-09-19T04:39:30;17.40;99.90
6538;DHT22;3302;52.508;13.454;2023-09-19T04:41:55;17.40;99.90
6538;DHT22;3302;52.508;13.454;2023-09-19T04:44:22;17.30;99.90
6538;DHT22;3302;52.508;13.454;2023-09-19T04:46:48;17.30;99.90
6538;DHT22;3302;52.508;13.454;2023-09-19T04:49:14;17.30;99.90
6538;DHT22;3302;52.508;13.454;2023-09-19T04:51:40;17.30;99.90
6538;DHT22;3302;52.508;13.454;2023-09-19T04:54:05;17.30;99.90
6538;DHT22;3302;52.508;13.454;2023-09-19T04:56:32;17.30;99.90
6538;DHT22;3302;52.508;13.454;2023-09-19T04:58:59;17.30;99.90
6538;DHT22;3302;52.508;13.454;2023-09-19T05:01:25;17.30;99.90
6538;DHT22;3302;52.508;13.454;2023-09-19T05:03:51;17.20;99.90
6538;DHT22;3302;52.508;13.454;2023-09-19T05:06:20;17.20;99.90
6538;DHT22;3302;52.508;13.454;2023-09-19T05:08:50;17.20;99.90
6538;DHT22;3302;52.508;13.454;2023-09-19T05:11:19;17.20;99.90
6538;DHT22;3302;52.508;13.454;2023-09-19T05:13:49;17.20;99.90
6538;DHT22;3302;52.508;13.454;2023-09-19T05:16:19;17.10;99.90
6538;DHT22;3302;52.508;13.454;2023-09-19T05:18:44;17.10;99.90
6538;DHT22;3302;52.508;13.454;2023-09-19T05:21:10;17.10;99.90
6538;DHT22;3302;52.508;13.454;2023-09-19T05:23:36;17.10;99.90
6538;DHT22;3302;52.508;13.454;2023-09-19T05:26:02;17.00;99.90
6538;DHT22;3302;52.508;13.454;2023-09-19T05:28:30;17.10;99.90
6538;DHT22;3302;52.508;13.454;2023-09-19T05:31:00;17.10;99.90
6538;DHT22;3302;52.508;13.454;2023-09-19T05:33:27;17.00;99.90
6538;DHT22;3302;52.508;13.454;2023-09-19T05:35:53;17.00;99.90
6538;DHT22;3302;52.508;13.454;2023-09-19T05:38:19;17.00;99.90
6538;DHT22;3302;52.508;13.454;2023-09-19T05:40:46;17.00;99.90
6538;DHT22;3302;52.508;13.454;2023-09-19T05:43:12;17.00;99.90
6538;DHT22;3302;52.508;13.454;2023-09-19T05:45:40;17.00;99.90
6538;DHT22;3302;52.508;13.454;2023-09-19T05:48:14;17.00;99.90
6538;DHT22;3302;52.508;13.454;2023-09-19T05:50:41;17.00;99.90
6538;DHT22;3302;52.508;13.454;2023-09-19T05:53:07;17.00;99.90
6538;DHT22;3302;52.508;13.454;2023-09-19T05:55:37;17.00;99.90
6538;DHT22;3302;52.508;13.454;2023-09-19T05:58:03;17.00;99.90
6538;DHT22;3302;52.508;13.454;2023-09-19T06:00:29;17.10;99.90
6538;DHT22;3302;52.508;13.454;2023-09-19T06:02:56;17.10;99.90
6538;DHT22;3302;52.508;13.454;2023-09-19T06:05:24;17.10;99.90
6538;DHT22;3302;52.508;13.454;2023-09-19T06:07:50;17.10;99.90
6538;DHT22;3302;52.508;13.454;2023-09-19T06:10:18;17.20;99.90
6538;DHT22;3302;52.508;13.454;2023-09-19T06:12:46;17.20;99.90
6538;DHT22;3302;52.508;13.454;2023-09-19T06:15:14;17.20;99.90
6538;DHT22;3302;52.508;13.454;2023-09-19T06:17:55;17.10;99.90
6538;DHT22;3302;52.508;13.454;2023-09-19T06:20:24;17.20;99.90
6538;DHT22;3302;52.508;13.454;2023-09-19T06:22:51;17.10;99.90
6538;DHT22;3302;52.508;13.454;2023-09-19T06:25:17;17.20;99.90
6538;DHT22;3302;52.508;13.454;2023-09-19T06:27:52;17.20;99.90
6538;DHT22;3302;52.508;13.454;2023-09-19T06:30:20;17.20;99.90
6538;DHT22;3302;52.508;13.454;2023-09-19T06:32:46;17.20;99.90
6538;DHT22;3302;52.508;13.454;2023-09-19T06:35:13;17.20;99.90
6538;DHT22;3302;52.508;13.454;2023-09-19T06:37:40;17.30;99.90
6538;DHT22;3302;52.508;13.454;2023-09-19T06:40:13;17.20;99.90
6538;DHT22;3302;52.508;13.454;2023-09-19T06:42:43;17.10;99.90
6538;DHT22;3302;52.508;13.454;2023-09-19T06:45:11;17.30;99.90
6538;DHT22;3302;52.508;13.454;2023-09-19T06:47:43;17.20;99.90
6538;DHT22;3302;52.508;13.454;2023-09-19T06:50:10;17.40;99.90
6538;DHT22;3302;52.508;13.454;2023-09-19T06:52:41;17.40;99.90
6538;DHT22;3302;52.508;13.454;2023-09-19T06:55:07;17.50;99.90
6538;DHT22;3302;52.508;13.454;2023-09-19T06:57:33;17.60;99.90
6538;DHT22;3302;52.508;13.454;2023-09-19T06:59:59;17.50;99.90
6538;DHT22;3302;52.508;13.454;2023-09-19T07:02:27;17.50;99.90
6538;DHT22;3302;52.508;13.454;2023-09-19T07:04:53;17.60;99.90
6538;DHT22;3302;52.508;13.454;2023-09-19T07:07:18;17.70;99.90
6538;DHT22;3302;52.508;13.454;2023-09-19T07:09:45;17.90;99.90
6538;DHT22;3302;52.508;13.454;2023-09-19T07:12:11;18.10;99.90
6538;DHT22;3302;52.508;13.454;2023-09-19T07:14:37;18.20;99.90
6538;DHT22;3302;52.508;13.454;2023-09-19T07:17:03;18.40;99.90
6538;DHT22;3302;52.508;13.454;2023-09-19T07:19:29;18.50;99.90
6538;DHT22;3302;52.508;13.454;2023-09-19T07:21:57;18.30;99.90
6538;DHT22;3302;52.508;13.454;2023-09-19T07:24:25;18.20;99.90
6538;DHT22;3302;52.508;13.454;2023-09-19T07:26:52;18.20;99.90
6538;DHT22;3302;52.508;13.454;2023-09-19T07:29:18;18.50;99.90
6538;DHT22;3302;52.508;13.454;2023-09-19T07:31:44;18.50;99.90
6538;DHT22;3302;52.508;13.454;2023-09-19T07:34:10;18.60;99.90
6538;DHT22;3302;52.508;13.454;2023-09-19T07:36:36;18.50;99.90
6538;DHT22;3302;52.508;13.454;2023-09-19T07:39:03;18.50;99.90
6538;DHT22;3302;52.508;13.454;2023-09-19T07:41:33;18.50;99.90
6538;DHT22;3302;52.508;13.454;2023-09-19T07:43:58;18.60;99.90
6538;DHT22;3302;52.508;13.454;2023-09-19T07:46:24;18.70;99.80
6538;DHT22;3302;52.508;13.454;2023-09-19T07:48:51;18.70;99.00
6538;DHT22;3302;52.508;13.454;2023-09-19T07:51:17;18.40;99.30
6538;DHT22;3302;52.508;13.454;2023-09-19T07:53:43;18.40;99.40
6538;DHT22;3302;52.508;13.454;2023-09-19T07:56:10;18.40;99.40
6538;DHT22;3302;52.508;13.454;2023-09-19T07:58:39;18.50;98.80
6538;DHT22;3302;52.508;13.454;2023-09-19T08:01:07;18.50;98.50
6538;DHT22;3302;52.508;13.454;2023-09-19T08:03:34;18.50;98.10
6538;DHT22;3302;52.508;13.454;2023-09-19T08:06:00;18.50;97.70
6538;DHT22;3302;52.508;13.454;2023-09-19T08:08:29;18.40;96.50
6538;DHT22;3302;52.508;13.454;2023-09-19T08:10:56;18.50;96.80
6538;DHT22;3302;52.508;13.454;2023-09-19T08:13:25;18.50;96.50
6538;DHT22;3302;52.508;13.454;2023-09-19T08:15:51;18.50;96.80
6538;DHT22;3302;52.508;13.454;2023-09-19T08:18:19;18.40;96.20
6538;DHT22;3302;52.508;13.454;2023-09-19T08:20:52;18.50;96.20
6538;DHT22;3302;52.508;13.454;2023-09-19T08:23:18;18.50;96.40
6538;DHT22;3302;52.508;13.454;2023-09-19T08:25:48;18.50;96.00
6538;DHT22;3302;52.508;13.454;2023-09-19T08:28:14;18.40;96.20
6538;DHT22;3302;52.508;13.454;2023-09-19T08:30:45;18.30;95.90
6538;DHT22;3302;52.508;13.454;2023-09-19T08:33:11;18.40;95.80
6538;DHT22;3302;52.508;13.454;2023-09-19T08:35:37;18.40;95.80
6538;DHT22;3302;52.508;13.454;2023-09-19T08:38:06;18.10;96.10
6538;DHT22;3302;52.508;13.454;2023-09-19T08:40:34;18.00;96.50
6538;DHT22;3302;52.508;13.454;2023-09-19T08:43:02;18.00;96.60
6538;DHT22;3302;52.508;13.454;2023-09-19T08:45:28;18.30;96.60
6538;DHT22;3302;52.508;13.454;2023-09-19T08:50:29;18.40;96.00
6538;DHT22;3302;52.508;13.454;2023-09-19T08:53:01;18.10;95.80
6538;DHT22;3302;52.508;13.454;2023-09-19T08:55:28;18.10;95.80
6538;DHT22;3302;52.508;13.454;2023-09-19T08:58:03;18.20;95.60
6538;DHT22;3302;52.508;13.454;2023-09-19T09:00:33;18.30;95.70
6538;DHT22;3302;52.508;13.454;2023-09-19T09:03:01;18.40;95.60
6538;DHT22;3302;52.508;13.454;2023-09-19T09:05:28;18.50;95.50
6538;DHT22;3302;52.508;13.454;2023-09-19T09:07:55;18.50;95.10
6538;DHT22;3302;52.508;13.454;2023-09-19T09:10:22;18.30;94.90
6538;DHT22;3302;52.508;13.454;2023-09-19T09:12:53;18.40;95.00
6538;DHT22;3302;52.508;13.454;2023-09-19T09:15:22;18.40;94.40
6538;DHT22;3302;52.508;13.454;2023-09-19T09:17:52;18.60;94.00
6538;DHT22;3302;52.508;13.454;2023-09-19T09:20:21;18.40;93.50
6538;DHT22;3302;52.508;13.454;2023-09-19T09:22:57;18.50;93.80
6538;DHT22;3302;52.508;13.454;2023-09-19T09:25:54;18.50;93.40
6538;DHT22;3302;52.508;13.454;2023-09-19T09:28:23;18.60;93.50
6538;DHT22;3302;52.508;13.454;2023-09-19T09:30:50;18.70;93.50
6538;DHT22;3302;52.508;13.454;2023-09-19T09:33:17;18.70;93.50
6538;DHT22;3302;52.508;13.454;2023-09-19T09:35:53;18.80;93.40
6538;DHT22;3302;52.508;13.454;2023-09-19T09:38:26;18.90;93.50
6538;DHT22;3302;52.508;13.454;2023-09-19T09:41:00;19.00;92.30
6538;DHT22;3302;52.508;13.454;2023-09-19T09:43:37;18.80;92.20
6538;DHT22;3302;52.508;13.454;2023-09-19T09:46:14;19.10;92.20
6538;DHT22;3302;52.508;13.454;2023-09-19T09:49:02;19.40;92.00
6538;DHT22;3302;52.508;13.454;2023-09-19T09:51:49;19.50;91.30
6538;DHT22;3302;52.508;13.454;2023-09-19T09:54:26;19.20;91.70
6538;DHT22;3302;52.508;13.454;2023-09-19T09:56:59;19.10;90.90
6538;DHT22;3302;52.508;13.454;2023-09-19T09:59:55;19.30;90.80
6538;DHT22;3302;52.508;13.454;2023-09-19T10:02:30;19.30;90.80
6538;DHT22;3302;52.508;13.454;2023-09-19T10:05:12;19.60;90.00
6538;DHT22;3302;52.508;13.454;2023-09-19T10:07:54;19.40;87.20
6538;DHT22;3302;52.508;13.454;2023-09-19T10:10:32;19.70;86.20
6538;DHT22;3302;52.508;13.454;2023-09-19T10:13:12;19.60;82.80
6538;DHT22;3302;52.508;13.454;2023-09-19T10:15:42;19.60;84.60
6538;DHT22;3302;52.508;13.454;2023-09-19T10:18:26;19.70;82.50
6538;DHT22;3302;52.508;13.454;2023-09-19T10:20:53;19.80;82.40
6538;DHT22;3302;52.508;13.454;2023-09-19T10:23:21;20.00;82.10
6538;DHT22;3302;52.508;13.454;2023-09-19T10:25:52;20.00;81.80
6538;DHT22;3302;52.508;13.454;2023-09-19T10:28:19;19.70;81.30
6538;DHT22;3302;52.508;13.454;2023-09-19T10:30:53;19.50;80.30
6538;DHT22;3302;52.508;13.454;2023-09-19T10:33:21;19.70;80.00
6538;DHT22;3302;52.508;13.454;2023-09-19T10:35:50;19.70;79.50
6538;DHT22;3302;52.508;13.454;2023-09-19T10:38:26;19.70;81.00
6538;DHT22;3302;52.508;13.454;2023-09-19T10:40:55;19.60;80.20
6538;DHT22;3302;52.508;13.454;2023-09-19T10:43:28;19.40;77.30
6538;DHT22;3302;52.508;13.454;2023-09-19T10:46:00;19.70;78.40
6538;DHT22;3302;52.508;13.454;2023-09-19T10:48:26;19.50;76.80
6538;DHT22;3302;52.508;13.454;2023-09-19T10:51:12;19.50;77.70
6538;DHT22;3302;52.508;13.454;2023-09-19T10:53:47;19.60;77.70
6538;DHT22;3302;52.508;13.454;2023-09-19T10:56:24;19.60;77.80
6538;DHT22;3302;52.508;13.454;2023-09-19T10:59:08;19.60;72.70
6538;DHT22;3302;52.508;13.454;2023-09-19T11:01:52;19.50;72.10
6538;DHT22;3302;52.508;13.454;2023-09-19T11:04:34;19.70;70.90
6538;DHT22;3302;52.508;13.454;2023-09-19T11:09:56;19.60;72.30
6538;DHT22;3302;52.508;13.454;2023-09-19T11:26:45;19.80;70.20
6538;DHT22;3302;52.508;13.454;2023-09-19T11:29:30;19.70;70.80
6538;DHT22;3302;52.508;13.454;2023-09-19T11:31:57;19.80;70.70
6538;DHT22;3302;52.508;13.454;2023-09-19T11:34:37;19.90;68.90
6538;DHT22;3302;52.508;13.454;2023-09-19T11:40:09;19.80;68.50
6538;DHT22;3302;52.508;13.454;2023-09-19T11:42:46;19.80;70.00
6538;DHT22;3302;52.508;13.454;2023-09-19T11:48:13;20.10;68.50
6538;DHT22;3302;52.508;13.454;2023-09-19T11:50:42;20.20;68.80
6538;DHT22;3302;52.508;13.454;2023-09-19T11:53:13;19.90;68.60
6538;DHT22;3302;52.508;13.454;2023-09-19T11:55:40;20.00;68.70
6538;DHT22;3302;52.508;13.454;2023-09-19T11:58:08;19.90;69.20
6538;DHT22;3302;52.508;13.454;2023-09-19T12:00:38;19.90;70.40
6538;DHT22;3302;52.508;13.454;2023-09-19T12:03:09;19.90;70.30
6538;DHT22;3302;52.508;13.454;2023-09-19T12:05:35;20.10;69.70
6538;DHT22;3302;52.508;13.454;2023-09-19T12:08:04;20.30;69.50
6538;DHT22;3302;52.508;13.454;2023-09-19T12:10:33;20.20;66.70
6538;DHT22;3302;52.508;13.454;2023-09-19T12:12:59;20.30;67.20
6538;DHT22;3302;52.508;13.454;2023-09-19T12:15:25;19.80;65.90
6538;DHT22;3302;52.508;13.454;2023-09-19T12:18:00;20.10;66.80
6538;DHT22;3302;52.508;13.454;2023-09-19T12:20:42;20.10;66.80
6538;DHT22;3302;52.508;13.454;2023-09-19T12:23:13;20.10;67.00
6538;DHT22;3302;52.508;13.454;2023-09-19T12:25:43;20.30;66.30
6538;DHT22;3302;52.508;13.454;2023-09-19T12:28:16;20.10;65.60
6538;DHT22;3302;52.508;13.454;2023-09-19T12:30:47;20.10;66.30
6538;DHT22;3302;52.508;13.454;2023-09-19T12:33:19;20.00;65.70
6538;DHT22;3302;52.508;13.454;2023-09-19T12:35:47;20.10;64.70
6538;DHT22;3302;52.508;13.454;2023-09-19T12:38:28;20.10;63.50
6538;DHT22;3302;52.508;13.454;2023-09-19T12:40:57;20.20;62.50
6538;DHT22;3302;52.508;13.454;2023-09-19T12:43:34;20.00;62.30
6538;DHT22;3302;52.508;13.454;2023-09-19T12:46:01;20.10;63.00
6538;DHT22;3302;52.508;13.454;2023-09-19T12:48:28;20.30;62.20
6538;DHT22;3302;52.508;13.454;2023-09-19T12:53:29;20.30;62.40
6538;DHT22;3302;52.508;13.454;2023-09-19T12:55:59;20.50;62.20
6538;DHT22;3302;52.508;13.454;2023-09-19T12:58:25;20.50;62.60
6538;DHT22;3302;52.508;13.454;2023-09-19T13:00:51;20.40;62.90
6538;DHT22;3302;52.508;13.454;2023-09-19T13:05:58;20.50;62.70
6538;DHT22;3302;52.508;13.454;2023-09-19T13:08:34;20.50;62.10
6538;DHT22;3302;52.508;13.454;2023-09-19T13:11:14;20.40;62.50
6538;DHT22;3302;52.508;13.454;2023-09-19T13:13:45;20.40;63.20
6538;DHT22;3302;52.508;13.454;2023-09-19T13:16:16;20.40;63.80
6538;DHT22;3302;52.508;13.454;2023-09-19T13:18:52;20.30;64.00
6538;DHT22;3302;52.508;13.454;2023-09-19T13:21:35;20.20;64.60
6538;DHT22;3302;52.508;13.454;2023-09-19T13:24:23;20.10;63.40
6538;DHT22;3302;52.508;13.454;2023-09-19T13:26:51;20.40;63.50
6538;DHT22;3302;52.508;13.454;2023-09-19T13:29:17;20.40;64.30
6538;DHT22;3302;52.508;13.454;2023-09-19T13:31:48;20.20;63.40
6538;DHT22;3302;52.508;13.454;2023-09-19T13:34:14;20.10;63.40
6538;DHT22;3302;52.508;13.454;2023-09-19T13:36:42;20.20;63.70
6538;DHT22;3302;52.508;13.454;2023-09-19T13:39:08;20.20;63.00
6538;DHT22;3302;52.508;13.454;2023-09-19T13:41:38;20.20;63.30
6538;DHT22;3302;52.508;13.454;2023-09-19T13:44:05;20.20;63.60
6538;DHT22;3302;52.508;13.454;2023-09-19T13:46:31;20.30;63.40
6538;DHT22;3302;52.508;13.454;2023-09-19T13:49:01;20.10;64.40
6538;DHT22;3302;52.508;13.454;2023-09-19T13:51:32;20.30;64.20
6538;DHT22;3302;52.508;13.454;2023-09-19T13:53:58;20.30;64.20
6538;DHT22;3302;52.508;13.454;2023-09-19T13:56:25;20.30;63.90
6538;DHT22;3302;52.508;13.454;2023-09-19T13:58:56;20.30;64.50
6538;DHT22;3302;52.508;13.454;2023-09-19T14:01:22;20.20;64.20
6538;DHT22;3302;52.508;13.454;2023-09-19T14:03:48;20.10;63.80
6538;DHT22;3302;52.508;13.454;2023-09-19T14:06:17;20.10;64.00
6538;DHT22;3302;52.508;13.454;2023-09-19T14:08:44;20.10;63.60
6538;DHT22;3302;52.508;13.454;2023-09-19T14:11:13;20.20;64.00
6538;DHT22;3302;52.508;13.454;2023-09-19T14:13:40;20.20;63.70
6538;DHT22;3302;52.508;13.454;2023-09-19T14:16:08;20.60;63.00
6538;DHT22;3302;52.508;13.454;2023-09-19T14:18:35;20.60;62.60
6538;DHT22;3302;52.508;13.454;2023-09-19T14:21:05;20.50;63.30
6538;DHT22;3302;52.508;13.454;2023-09-19T14:23:35;20.50;63.00
6538;DHT22;3302;52.508;13.454;2023-09-19T14:26:01;20.60;63.50
6538;DHT22;3302;52.508;13.454;2023-09-19T14:28:27;20.50;63.70
6538;DHT22;3302;52.508;13.454;2023-09-19T14:30:55;20.60;63.50
6538;DHT22;3302;52.508;13.454;2023-09-19T14:33:21;20.50;62.70
6538;DHT22;3302;52.508;13.454;2023-09-19T14:35:47;20.50;63.10
6538;DHT22;3302;52.508;13.454;2023-09-19T14:38:14;20.70;63.70
6538;DHT22;3302;52.508;13.454;2023-09-19T14:40:39;20.70;63.10
6538;DHT22;3302;52.508;13.454;2023-09-19T14:43:06;20.50;63.30
6538;DHT22;3302;52.508;13.454;2023-09-19T14:45:36;20.50;63.70
6538;DHT22;3302;52.508;13.454;2023-09-19T14:48:01;20.60;63.90
6538;DHT22;3302;52.508;13.454;2023-09-19T14:50:31;20.60;64.00
6538;DHT22;3302;52.508;13.454;2023-09-19T14:52:57;20.60;63.90
6538;DHT22;3302;52.508;13.454;2023-09-19T14:55:27;20.50;63.40
6538;DHT22;3302;52.508;13.454;2023-09-19T14:57:55;20.60;63.50
6538;DHT22;3302;52.508;13.454;2023-09-19T15:00:22;20.70;64.20
6538;DHT22;3302;52.508;13.454;2023-09-19T15:02:49;20.70;64.10
6538;DHT22;3302;52.508;13.454;2023-09-19T15:05:16;20.60;62.60
6538;DHT22;3302;52.508;13.454;2023-09-19T15:07:42;20.50;62.80
6538;DHT22;3302;52.508;13.454;2023-09-19T15:10:08;20.40;62.20
6538;DHT22;3302;52.508;13.454;2023-09-19T15:12:36;20.40;62.60
6538;DHT22;3302;52.508;13.454;2023-09-19T15:15:04;20.30;62.10
6538;DHT22;3302;52.508;13.454;2023-09-19T15:17:34;20.40;62.50
6538;DHT22;3302;52.508;13.454;2023-09-19T15:20:01;20.40;63.20
6538;DHT22;3302;52.508;13.454;2023-09-19T15:22:27;20.50;62.80
6538;DHT22;3302;52.508;13.454;2023-09-19T15:24:53;20.40;62.70
6538;DHT22;3302;52.508;13.454;2023-09-19T15:27:19;20.50;61.70
6538;DHT22;3302;52.508;13.454;2023-09-19T15:29:47;20.40;62.80
6538;DHT22;3302;52.508;13.454;2023-09-19T15:32:13;20.40;62.30
6538;DHT22;3302;52.508;13.454;2023-09-19T15:34:39;20.40;62.70
6538;DHT22;3302;52.508;13.454;2023-09-19T15:37:05;20.30;62.00
6538;DHT22;3302;52.508;13.454;2023-09-19T15:39:31;20.40;62.50
6538;DHT22;3302;52.508;13.454;2023-09-19T15:42:00;20.40;62.70
6538;DHT22;3302;52.508;13.454;2023-09-19T15:44:25;20.40;62.50
6538;DHT22;3302;52.508;13.454;2023-09-19T15:46:54;20.40;62.70
6538;DHT22;3302;52.508;13.454;2023-09-19T15:49:20;20.30;62.60
6538;DHT22;3302;52.508;13.454;2023-09-19T15:51:46;20.20;63.30
6538;DHT22;3302;52.508;13.454;2023-09-19T15:54:13;20.30;63.90
6538;DHT22;3302;52.508;13.454;2023-09-19T15:56:43;20.30;64.00
6538;DHT22;3302;52.508;13.454;2023-09-19T15:59:09;20.30;64.20
6538;DHT22;3302;52.508;13.454;2023-09-19T16:01:38;20.40;64.60
6538;DHT22;3302;52.508;13.454;2023-09-19T16:04:06;20.40;64.80
6538;DHT22;3302;52.508;13.454;2023-09-19T16:06:35;20.30;64.80
6538;DHT22;3302;52.508;13.454;2023-09-19T16:09:02;20.20;65.10
6538;DHT22;3302;52.508;13.454;2023-09-19T16:11:33;20.20;66.30
6538;DHT22;3302;52.508;13.454;2023-09-19T16:14:01;20.30;67.20
6538;DHT22;3302;52.508;13.454;2023-09-19T16:16:28;20.30;65.90
6538;DHT22;3302;52.508;13.454;2023-09-19T16:18:57;20.30;66.50
6538;DHT22;3302;52.508;13.454;2023-09-19T16:21:25;20.30;67.00
6538;DHT22;3302;52.508;13.454;2023-09-19T16:23:56;20.20;66.00
6538;DHT22;3302;52.508;13.454;2023-09-19T16:26:23;20.20;66.30
6538;DHT22;3302;52.508;13.454;2023-09-19T16:28:51;20.10;66.30
6538;DHT22;3302;52.508;13.454;2023-09-19T16:31:18;20.10;67.20
6538;DHT22;3302;52.508;13.454;2023-09-19T16:33:46;20.00;66.70
6538;DHT22;3302;52.508;13.454;2023-09-19T16:36:18;20.10;66.70
6538;DHT22;3302;52.508;13.454;2023-09-19T16:38:45;20.00;67.40
6538;DHT22;3302;52.508;13.454;2023-09-19T16:41:13;20.10;69.10
6538;DHT22;3302;52.508;13.454;2023-09-19T16:43:40;20.00;67.10
6538;DHT22;3302;52.508;13.454;2023-09-19T16:46:08;19.90;67.30
6538;DHT22;3302;52.508;13.454;2023-09-19T16:48:36;19.80;67.00